sensor_id;sensor_type;location;lat;lon;timestamp;pressure;altitude;pressure_sealevel;temperature;humidity
74228;BME280;62587;52.352;5.006;2022-12-08T00:00:51;100993.06;;;20.45;41.27
74228;BME280;62587;52.352;5.006;2022-12-08T00:03:16;100984.88;;;20.48;41.23
74228;BME280;62587;52.352;5.006;2022-12-08T00:05:46;100987.53;;;20.48;40.93
74228;BME280;62587;52.352;5.006;2022-12-08T00:08:30;100973.38;;;20.48;40.79
74228;BME280;62587;52.352;5.006;2022-12-08T00:11:15;100964.66;;;20.46;41.08
74228;BME280;62587;52.352;5.006;2022-12-08T00:13:40;100963.78;;;20.45;41.15
74228;BME280;62587;52.352;5.006;2022-12-08T00:16:06;100962.00;;;20.46;41.20
74228;BME280;62587;52.352;5.006;2022-12-08T00:18:31;100954.09;;;20.44;41.12
74228;BME280;62587;52.352;5.006;2022-12-08T00:20:57;100947.09;;;20.43;40.90
74228;BME280;62587;52.352;5.006;2022-12-08T00:23:23;100946.25;;;20.43;40.88
74228;BME280;62587;52.352;5.006;2022-12-08T00:25:48;100938.38;;;20.41;40.84
74228;BME280;62587;52.352;5.006;2022-12-08T00:28:14;100937.41;;;20.42;40.90
74228;BME280;62587;52.352;5.006;2022-12-08T00:30:40;100927.81;;;20.40;40.76
74228;BME280;62587;52.352;5.006;2022-12-08T00:33:06;100932.31;;;20.39;41.02
74228;BME280;62587;52.352;5.006;2022-12-08T00:35:31;100922.63;;;20.38;40.89
74228;BME280;62587;52.352;5.006;2022-12-08T00:37:56;100927.94;;;20.38;41.09
74228;BME280;62587;52.352;5.006;2022-12-08T00:40:22;100922.63;;;20.38;41.23
74228;BME280;62587;52.352;5.006;2022-12-08T00:42:47;100914.84;;;20.35;40.86
74228;BME280;62587;52.352;5.006;2022-12-08T00:45:12;100911.25;;;20.36;41.01
74228;BME280;62587;52.352;5.006;2022-12-08T00:47:38;100938.78;;;20.35;41.02
74228;BME280;62587;52.352;5.006;2022-12-08T00:50:04;100927.41;;;20.33;40.61
74228;BME280;62587;52.352;5.006;2022-12-08T00:52:29;100921.16;;;20.34;40.67
74228;BME280;62587;52.352;5.006;2022-12-08T00:54:54;100920.41;;;20.32;40.63
74228;BME280;62587;52.352;5.006;2022-12-08T00:57:20;100909.00;;;20.30;40.89
74228;BME280;62587;52.352;5.006;2022-12-08T00:59:45;100915.28;;;20.29;40.74
74228;BME280;62587;52.352;5.006;2022-12-08T01:02:10;100903.69;;;20.30;40.62
74228;BME280;62587;52.352;5.006;2022-12-08T01:04:37;100903.81;;;20.29;40.97
74228;BME280;62587;52.352;5.006;2022-12-08T01:07:02;100908.25;;;20.28;40.59
74228;BME280;62587;52.352;5.006;2022-12-08T01:09:28;100909.25;;;20.27;40.62
74228;BME280;62587;52.352;5.006;2022-12-08T01:11:53;100897.81;;;20.25;40.72
74228;BME280;62587;52.352;5.006;2022-12-08T01:14:18;100909.31;;;20.26;41.04
74228;BME280;62587;52.352;5.006;2022-12-08T01:16:44;100911.97;;;20.26;40.80
74228;BME280;62587;52.352;5.006;2022-12-08T01:19:14;100910.28;;;20.25;41.05
74228;BME280;62587;52.352;5.006;2022-12-08T01:21:40;100904.13;;;20.24;40.73
74228;BME280;62587;52.352;5.006;2022-12-08T01:24:08;100903.25;;;20.24;40.83
74228;BME280;62587;52.352;5.006;2022-12-08T01:26:34;100903.25;;;20.24;40.64
74228;BME280;62587;52.352;5.006;2022-12-08T01:28:59;100897.94;;;20.24;40.89
74228;BME280;62587;52.352;5.006;2022-12-08T01:31:25;100898.97;;;20.21;40.68
74228;BME280;62587;52.352;5.006;2022-12-08T01:33:50;100892.75;;;20.22;40.82
74228;BME280;62587;52.352;5.006;2022-12-08T01:36:25;100898.13;;;20.21;40.71
74228;BME280;62587;52.352;5.006;2022-12-08T01:38:51;100892.91;;;20.19;40.90
74228;BME280;62587;52.352;5.006;2022-12-08T01:41:19;100900.91;;;20.19;40.81
74228;BME280;62587;52.352;5.006;2022-12-08T01:46:26;100893.03;;;20.18;40.69
74228;BME280;62587;52.352;5.006;2022-12-08T01:49:22;100898.22;;;20.19;40.68
74228;BME280;62587;52.352;5.006;2022-12-08T01:51:55;100895.69;;;20.18;40.92
74228;BME280;62587;52.352;5.006;2022-12-08T01:54:26;100891.19;;;20.18;40.73
74228;BME280;62587;52.352;5.006;2022-12-08T01:59:21;100885.16;;;20.16;40.88
74228;BME280;62587;52.352;5.006;2022-12-08T02:01:48;100875.50;;;20.15;40.57
74228;BME280;62587;52.352;5.006;2022-12-08T02:04:13;100874.63;;;20.15;40.57
74228;BME280;62587;52.352;5.006;2022-12-08T02:06:40;100882.59;;;20.15;40.61
74228;BME280;62587;52.352;5.006;2022-12-08T02:09:07;100880.88;;;20.14;40.87
74228;BME280;62587;52.352;5.006;2022-12-08T02:11:32;100884.41;;;20.14;41.00
74228;BME280;62587;52.352;5.006;2022-12-08T02:13:58;100873.88;;;20.13;40.79
74228;BME280;62587;52.352;5.006;2022-12-08T02:33:26;100858.88;;;20.12;40.71
74228;BME280;62587;52.352;5.006;2022-12-08T02:36:06;100853.56;;;20.12;40.63
74228;BME280;62587;52.352;5.006;2022-12-08T02:38:51;100842.06;;;20.11;40.94
74228;BME280;62587;52.352;5.006;2022-12-08T02:41:44;100842.06;;;20.11;40.74
74228;BME280;62587;52.352;5.006;2022-12-08T02:44:51;100847.41;;;20.11;41.19
74228;BME280;62587;52.352;5.006;2022-12-08T02:47:19;100837.00;;;20.08;40.75
74228;BME280;62587;52.352;5.006;2022-12-08T02:49:46;100831.69;;;20.08;40.80
74228;BME280;62587;52.352;5.006;2022-12-08T02:54:43;100822.94;;;20.06;41.08
74228;BME280;62587;52.352;5.006;2022-12-08T03:00:07;100822.00;;;20.07;40.72
74228;BME280;62587;52.352;5.006;2022-12-08T03:08:31;100816.56;;;20.08;40.78
74228;BME280;62587;52.352;5.006;2022-12-08T03:11:12;100818.41;;;20.08;41.11
74228;BME280;62587;52.352;5.006;2022-12-08T03:13:42;100823.78;;;20.06;41.08
74228;BME280;62587;52.352;5.006;2022-12-08T03:16:10;100823.72;;;20.08;41.01
74228;BME280;62587;52.352;5.006;2022-12-08T03:18:41;100819.34;;;20.07;41.06
74228;BME280;62587;52.352;5.006;2022-12-08T03:21:08;100814.97;;;20.06;41.13
74228;BME280;62587;52.352;5.006;2022-12-08T03:23:36;100799.13;;;20.04;40.64
74228;BME280;62587;52.352;5.006;2022-12-08T03:26:24;100804.44;;;20.04;40.77
74228;BME280;62587;52.352;5.006;2022-12-08T03:28:53;100797.34;;;20.05;40.65
74228;BME280;62587;52.352;5.006;2022-12-08T03:31:18;100791.16;;;20.04;40.74
74228;BME280;62587;52.352;5.006;2022-12-08T03:33:48;100779.69;;;20.04;40.81
74228;BME280;62587;52.352;5.006;2022-12-08T03:36:15;100784.06;;;20.05;40.77
74228;BME280;62587;52.352;5.006;2022-12-08T03:38:43;100777.03;;;20.04;41.19
74228;BME280;62587;52.352;5.006;2022-12-08T03:41:09;100773.50;;;20.03;41.00
74228;BME280;62587;52.352;5.006;2022-12-08T03:43:52;100763.00;;;20.02;40.79
74228;BME280;62587;52.352;5.006;2022-12-08T03:46:19;100772.56;;;20.04;40.78
74228;BME280;62587;52.352;5.006;2022-12-08T03:48:45;100769.91;;;20.04;40.82
74228;BME280;62587;52.352;5.006;2022-12-08T03:51:10;100770.03;;;20.03;40.71
74228;BME280;62587;52.352;5.006;2022-12-08T03:53:36;100766.38;;;20.04;40.81
74228;BME280;62587;52.352;5.006;2022-12-08T03:56:32;100758.41;;;20.04;40.74
74228;BME280;62587;52.352;5.006;2022-12-08T03:58:58;100751.63;;;20.00;40.78
74228;BME280;62587;52.352;5.006;2022-12-08T04:01:23;100749.50;;;20.05;40.90
74228;BME280;62587;52.352;5.006;2022-12-08T04:03:49;100758.53;;;20.02;41.46
74228;BME280;62587;52.352;5.006;2022-12-08T04:06:15;100760.22;;;20.03;41.82
74228;BME280;62587;52.352;5.006;2022-12-08T04:08:41;100760.13;;;20.05;41.68
74228;BME280;62587;52.352;5.006;2022-12-08T04:11:06;100767.97;;;20.06;41.72
74228;BME280;62587;52.352;5.006;2022-12-08T04:13:33;100775.94;;;20.06;41.58
74228;BME280;62587;52.352;5.006;2022-12-08T04:15:59;100780.41;;;20.06;41.78
74228;BME280;62587;52.352;5.006;2022-12-08T04:18:24;100778.63;;;20.06;41.47
74228;BME280;62587;52.352;5.006;2022-12-08T04:20:50;100784.78;;;20.07;41.64
74228;BME280;62587;52.352;5.006;2022-12-08T04:23:15;100778.63;;;20.06;41.75
74228;BME280;62587;52.352;5.006;2022-12-08T04:25:40;100784.91;;;20.05;41.65
74228;BME280;62587;52.352;5.006;2022-12-08T04:28:06;100776.94;;;20.05;41.62
74228;BME280;62587;52.352;5.006;2022-12-08T04:30:32;100771.63;;;20.05;41.45
74228;BME280;62587;52.352;5.006;2022-12-08T04:32:57;100762.78;;;20.05;41.60
74228;BME280;62587;52.352;5.006;2022-12-08T04:35:23;100765.44;;;20.05;41.60
74228;BME280;62587;52.352;5.006;2022-12-08T04:37:48;100761.94;;;20.04;41.63
74228;BME280;62587;52.352;5.006;2022-12-08T04:40:14;100759.41;;;20.03;41.36
74228;BME280;62587;52.352;5.006;2022-12-08T04:42:39;100754.06;;;20.03;41.50
74228;BME280;62587;52.352;5.006;2022-12-08T04:45:05;100759.41;;;20.03;41.78
74228;BME280;62587;52.352;5.006;2022-12-08T04:47:31;100749.59;;;20.03;41.64
74228;BME280;62587;52.352;5.006;2022-12-08T04:49:56;100754.41;;;19.98;41.17
74228;BME280;62587;52.352;5.006;2022-12-08T04:52:22;100763.00;;;20.02;41.81
74228;BME280;62587;52.352;5.006;2022-12-08T04:54:47;100755.03;;;20.02;41.53
74228;BME280;62587;52.352;5.006;2022-12-08T04:57:12;100756.81;;;20.01;41.63
74228;BME280;62587;52.352;5.006;2022-12-08T04:59:38;100755.03;;;20.02;41.71
74228;BME280;62587;52.352;5.006;2022-12-08T05:02:03;100751.50;;;20.01;41.43
74228;BME280;62587;52.352;5.006;2022-12-08T05:04:29;100747.16;;;20.00;41.67
74228;BME280;62587;52.352;5.006;2022-12-08T05:06:54;100742.78;;;19.99;41.47
74228;BME280;62587;52.352;5.006;2022-12-08T05:09:19;100744.50;;;20.00;41.40
74228;BME280;62587;52.352;5.006;2022-12-08T05:11:45;100742.91;;;19.98;41.45
74228;BME280;62587;52.352;5.006;2022-12-08T05:14:11;100741.94;;;19.99;41.18
74228;BME280;62587;52.352;5.006;2022-12-08T05:16:37;100739.28;;;19.99;41.19
74228;BME280;62587;52.352;5.006;2022-12-08T05:19:03;100737.59;;;19.98;41.35
74228;BME280;62587;52.352;5.006;2022-12-08T05:21:28;100734.94;;;19.98;41.33
74228;BME280;62587;52.352;5.006;2022-12-08T05:23:53;100734.09;;;19.97;41.59
74228;BME280;62587;52.352;5.006;2022-12-08T05:26:19;100732.38;;;19.96;41.43
74228;BME280;62587;52.352;5.006;2022-12-08T05:28:44;100732.38;;;19.96;41.27
74228;BME280;62587;52.352;5.006;2022-12-08T05:31:11;100734.09;;;19.97;41.32
74228;BME280;62587;52.352;5.006;2022-12-08T05:33:37;100735.88;;;19.97;41.32
74228;BME280;62587;52.352;5.006;2022-12-08T05:36:02;100734.09;;;19.97;41.04
74228;BME280;62587;52.352;5.006;2022-12-08T05:38:28;100730.56;;;19.97;41.23
74228;BME280;62587;52.352;5.006;2022-12-08T05:40:53;100738.66;;;19.95;41.08
74228;BME280;62587;52.352;5.006;2022-12-08T05:43:19;100728.03;;;19.95;41.49
74228;BME280;62587;52.352;5.006;2022-12-08T05:45:44;100728.91;;;19.96;41.06
74228;BME280;62587;52.352;5.006;2022-12-08T05:48:09;100733.34;;;19.95;41.39
74228;BME280;62587;52.352;5.006;2022-12-08T05:50:36;100734.22;;;19.96;41.41
74228;BME280;62587;52.352;5.006;2022-12-08T05:53:01;100726.31;;;19.94;41.34
74228;BME280;62587;52.352;5.006;2022-12-08T05:55:26;100722.72;;;19.95;41.24
74228;BME280;62587;52.352;5.006;2022-12-08T05:57:52;100720.91;;;19.96;41.10
74228;BME280;62587;52.352;5.006;2022-12-08T06:00:17;100720.06;;;19.95;41.51
74228;BME280;62587;52.352;5.006;2022-12-08T06:02:43;100721.13;;;19.93;41.32
74228;BME280;62587;52.352;5.006;2022-12-08T06:05:08;100713.16;;;19.93;41.12
74228;BME280;62587;52.352;5.006;2022-12-08T06:07:34;100710.50;;;19.93;41.49
74228;BME280;62587;52.352;5.006;2022-12-08T06:09:59;100713.16;;;19.93;41.05
74228;BME280;62587;52.352;5.006;2022-12-08T06:12:24;100714.97;;;19.92;40.92
74228;BME280;62587;52.352;5.006;2022-12-08T06:14:50;100713.16;;;19.93;41.30
74228;BME280;62587;52.352;5.006;2022-12-08T06:17:15;100710.63;;;19.91;41.16
74228;BME280;62587;52.352;5.006;2022-12-08T06:19:41;100715.81;;;19.93;41.00
74228;BME280;62587;52.352;5.006;2022-12-08T06:22:06;100703.47;;;19.92;41.25
74228;BME280;62587;52.352;5.006;2022-12-08T06:24:31;100702.66;;;19.91;41.37
74228;BME280;62587;52.352;5.006;2022-12-08T06:26:57;100702.75;;;19.90;41.24
74228;BME280;62587;52.352;5.006;2022-12-08T06:29:22;100706.13;;;19.92;41.13
74228;BME280;62587;52.352;5.006;2022-12-08T06:31:47;100702.66;;;19.91;41.08
74228;BME280;62587;52.352;5.006;2022-12-08T06:34:13;100703.59;;;19.90;41.17
74228;BME280;62587;52.352;5.006;2022-12-08T06:36:38;100710.72;;;19.90;41.10
74228;BME280;62587;52.352;5.006;2022-12-08T06:39:04;100707.19;;;19.89;41.00
74228;BME280;62587;52.352;5.006;2022-12-08T06:41:29;100717.81;;;19.89;40.96
74228;BME280;62587;52.352;5.006;2022-12-08T06:43:55;100718.81;;;19.88;41.01
74228;BME280;62587;52.352;5.006;2022-12-08T06:46:21;100724.00;;;19.90;40.99
74228;BME280;62587;52.352;5.006;2022-12-08T06:48:46;100719.66;;;19.89;41.35
74228;BME280;62587;52.352;5.006;2022-12-08T06:51:15;100714.56;;;19.86;41.06
74228;BME280;62587;52.352;5.006;2022-12-08T06:53:42;100722.41;;;19.87;41.43
74228;BME280;62587;52.352;5.006;2022-12-08T06:56:08;100720.59;;;19.88;40.89
74228;BME280;62587;52.352;5.006;2022-12-08T06:58:33;100718.06;;;19.86;41.15
74228;BME280;62587;52.352;5.006;2022-12-08T07:01:07;100717.22;;;19.86;41.42
74228;BME280;62587;52.352;5.006;2022-12-08T07:03:34;100721.47;;;19.88;41.48
74228;BME280;62587;52.352;5.006;2022-12-08T07:05:59;100714.56;;;19.86;41.12
74228;BME280;62587;52.352;5.006;2022-12-08T07:08:25;100719.94;;;19.84;41.37
74228;BME280;62587;52.352;5.006;2022-12-08T07:10:50;100726.97;;;19.85;40.84
74228;BME280;62587;52.352;5.006;2022-12-08T07:13:15;100726.97;;;19.85;41.06
74228;BME280;62587;52.352;5.006;2022-12-08T07:15:41;100738.47;;;19.86;41.27
74228;BME280;62587;52.352;5.006;2022-12-08T07:18:06;100743.88;;;19.84;41.30
74228;BME280;62587;52.352;5.006;2022-12-08T07:20:31;100749.19;;;19.84;40.84
74228;BME280;62587;52.352;5.006;2022-12-08T07:22:57;100747.28;;;19.86;40.92
74228;BME280;62587;52.352;5.006;2022-12-08T07:25:22;100735.06;;;19.84;41.10
74228;BME280;62587;52.352;5.006;2022-12-08T07:27:48;100747.50;;;19.83;41.06
74228;BME280;62587;52.352;5.006;2022-12-08T07:30:15;100746.53;;;19.84;40.97
74228;BME280;62587;52.352;5.006;2022-12-08T07:32:41;100750.16;;;19.83;41.16
74228;BME280;62587;52.352;5.006;2022-12-08T07:35:07;100743.88;;;19.84;41.04
74228;BME280;62587;52.352;5.006;2022-12-08T07:37:33;100743.03;;;19.84;41.13
74228;BME280;62587;52.352;5.006;2022-12-08T07:39:59;100742.72;;;19.88;41.19
74228;BME280;62587;52.352;5.006;2022-12-08T07:42:24;100744.19;;;19.92;41.28
74228;BME280;62587;52.352;5.006;2022-12-08T07:44:50;100736.63;;;19.99;40.51
74228;BME280;62587;52.352;5.006;2022-12-08T07:47:15;100729.91;;;20.06;40.87
74228;BME280;62587;52.352;5.006;2022-12-08T07:49:41;100729.28;;;20.15;40.65
74228;BME280;62587;52.352;5.006;2022-12-08T07:52:06;100723.47;;;20.23;40.24
74228;BME280;62587;52.352;5.006;2022-12-08T07:54:32;100732.69;;;20.30;40.71
74228;BME280;62587;52.352;5.006;2022-12-08T07:56:57;100730.66;;;20.33;40.46
74228;BME280;62587;52.352;5.006;2022-12-08T07:59:23;100730.94;;;20.41;39.99
74228;BME280;62587;52.352;5.006;2022-12-08T08:01:48;100725.28;;;20.46;39.85
74228;BME280;62587;52.352;5.006;2022-12-08T08:04:15;100722.91;;;20.54;40.21
74228;BME280;62587;52.352;5.006;2022-12-08T08:06:41;100727.91;;;20.58;40.04
74228;BME280;62587;52.352;5.006;2022-12-08T08:09:06;100716.06;;;20.62;40.02
74228;BME280;62587;52.352;5.006;2022-12-08T08:11:32;100718.41;;;20.67;40.04
74228;BME280;62587;52.352;5.006;2022-12-08T08:13:58;100723.38;;;20.71;40.08
74228;BME280;62587;52.352;5.006;2022-12-08T08:16:23;100724.84;;;20.76;39.83
74228;BME280;62587;52.352;5.006;2022-12-08T08:18:50;100736.25;;;20.78;39.84
74228;BME280;62587;52.352;5.006;2022-12-08T08:21:16;100735.91;;;20.82;39.90
74228;BME280;62587;52.352;5.006;2022-12-08T08:23:42;100738.31;;;20.85;39.96
74228;BME280;62587;52.352;5.006;2022-12-08T08:26:08;100738.09;;;20.88;39.78
74228;BME280;62587;52.352;5.006;2022-12-08T08:28:33;100739.56;;;20.92;40.32
74228;BME280;62587;52.352;5.006;2022-12-08T08:30:59;100730.50;;;20.95;39.95
74228;BME280;62587;52.352;5.006;2022-12-08T08:33:25;100740.06;;;20.97;40.20
74228;BME280;62587;52.352;5.006;2022-12-08T08:35:52;100741.63;;;21.00;39.88
74228;BME280;62587;52.352;5.006;2022-12-08T08:38:17;100732.56;;;21.02;39.73
74228;BME280;62587;52.352;5.006;2022-12-08T08:40:42;100729.72;;;21.05;40.19
74228;BME280;62587;52.352;5.006;2022-12-08T08:43:08;100726.94;;;21.07;40.18
74228;BME280;62587;52.352;5.006;2022-12-08T08:45:33;100731.31;;;21.08;40.08
74228;BME280;62587;52.352;5.006;2022-12-08T08:47:59;100729.50;;;21.08;39.79
74228;BME280;62587;52.352;5.006;2022-12-08T08:50:24;100732.03;;;21.10;39.87
74228;BME280;62587;52.352;5.006;2022-12-08T08:52:50;100738.22;;;21.10;39.76
74228;BME280;62587;52.352;5.006;2022-12-08T08:55:15;100734.94;;;21.07;40.17
74228;BME280;62587;52.352;5.006;2022-12-08T08:57:41;100736.50;;;21.09;40.28
74228;BME280;62587;52.352;5.006;2022-12-08T09:00:07;100740.88;;;21.10;40.20
74228;BME280;62587;52.352;5.006;2022-12-08T09:02:35;100750.91;;;21.07;40.32
74228;BME280;62587;52.352;5.006;2022-12-08T09:05:01;100755.81;;;21.00;40.70
74228;BME280;62587;52.352;5.006;2022-12-08T09:07:26;100746.63;;;21.04;40.10
74228;BME280;62587;52.352;5.006;2022-12-08T09:09:51;100757.94;;;21.08;40.17
74228;BME280;62587;52.352;5.006;2022-12-08T09:12:17;100754.53;;;21.06;40.33
74228;BME280;62587;52.352;5.006;2022-12-08T09:14:42;100762.19;;;21.10;39.69
74228;BME280;62587;52.352;5.006;2022-12-08T09:17:07;100761.09;;;21.13;39.71
74228;BME280;62587;52.352;5.006;2022-12-08T09:19:33;100747.66;;;21.14;39.91
74228;BME280;62587;52.352;5.006;2022-12-08T09:21:59;100750.09;;;21.17;39.71
74228;BME280;62587;52.352;5.006;2022-12-08T09:24:24;100744.78;;;21.17;39.82
74228;BME280;62587;52.352;5.006;2022-12-08T09:26:50;100741.25;;;21.17;39.99
74228;BME280;62587;52.352;5.006;2022-12-08T09:29:15;100751.69;;;21.20;39.82
74228;BME280;62587;52.352;5.006;2022-12-08T09:31:42;100747.22;;;21.20;39.57
74228;BME280;62587;52.352;5.006;2022-12-08T09:34:07;100742.63;;;21.22;39.54
74228;BME280;62587;52.352;5.006;2022-12-08T09:36:32;100740.69;;;21.24;39.41
74228;BME280;62587;52.352;5.006;2022-12-08T09:38:58;100744.19;;;21.25;39.39
74228;BME280;62587;52.352;5.006;2022-12-08T09:42:14;100730.88;;;21.25;39.42
74228;BME280;62587;52.352;5.006;2022-12-08T09:44:47;100736.00;;;21.28;39.29
74228;BME280;62587;52.352;5.006;2022-12-08T09:49:46;100733.94;;;21.31;39.30
74228;BME280;62587;52.352;5.006;2022-12-08T09:52:26;100740.84;;;21.34;39.37
74228;BME280;62587;52.352;5.006;2022-12-08T09:54:57;100742.53;;;21.35;39.46
74228;BME280;62587;52.352;5.006;2022-12-08T09:57:23;100735.28;;;21.37;39.25
74228;BME280;62587;52.352;5.006;2022-12-08T09:59:54;100742.19;;;21.40;39.52
74228;BME280;62587;52.352;5.006;2022-12-08T10:02:23;100740.38;;;21.40;39.15
74228;BME280;62587;52.352;5.006;2022-12-08T10:04:49;100742.91;;;21.42;39.10
74228;BME280;62587;52.352;5.006;2022-12-08T10:13:03;100733.19;;;21.29;39.54
74228;BME280;62587;52.352;5.006;2022-12-08T10:18:09;100723.91;;;21.35;39.90
74228;BME280;62587;52.352;5.006;2022-12-08T10:20:38;100717.59;;;21.36;39.46
74228;BME280;62587;52.352;5.006;2022-12-08T10:23:21;100712.41;;;21.34;40.02
74228;BME280;62587;52.352;5.006;2022-12-08T10:25:53;100719.53;;;21.34;40.29
74228;BME280;62587;52.352;5.006;2022-12-08T10:28:20;100715.06;;;21.34;40.25
74228;BME280;62587;52.352;5.006;2022-12-08T10:30:46;100708.16;;;21.32;40.31
74228;BME280;62587;52.352;5.006;2022-12-08T10:33:15;100705.50;;;21.32;40.25
74228;BME280;62587;52.352;5.006;2022-12-08T10:35:53;100701.59;;;21.25;40.57
74228;BME280;62587;52.352;5.006;2022-12-08T10:38:21;100702.56;;;21.24;40.89
74228;BME280;62587;52.352;5.006;2022-12-08T10:40:49;100699.88;;;21.24;41.01
74228;BME280;62587;52.352;5.006;2022-12-08T10:43:23;100685.97;;;21.20;40.99
74228;BME280;62587;52.352;5.006;2022-12-08T10:45:50;100695.91;;;21.18;41.14
74228;BME280;62587;52.352;5.006;2022-12-08T10:48:55;100689.09;;;21.14;41.26
74228;BME280;62587;52.352;5.006;2022-12-08T10:51:29;100681.97;;;21.15;41.17
74228;BME280;62587;52.352;5.006;2022-12-08T10:53:59;100676.75;;;21.13;41.81
74228;BME280;62587;52.352;5.006;2022-12-08T10:56:27;100678.91;;;21.08;41.47
74228;BME280;62587;52.352;5.006;2022-12-08T11:01:38;100686.69;;;21.11;41.46
74228;BME280;62587;52.352;5.006;2022-12-08T11:04:16;100685.94;;;21.09;41.86
74228;BME280;62587;52.352;5.006;2022-12-08T11:06:43;100680.38;;;21.12;41.69
74228;BME280;62587;52.352;5.006;2022-12-08T11:11:52;100675.91;;;21.24;42.20
74228;BME280;62587;52.352;5.006;2022-12-08T11:16:51;100666.75;;;21.28;41.84
74228;BME280;62587;52.352;5.006;2022-12-08T11:19:19;100671.00;;;21.53;41.14
74228;BME280;62587;52.352;5.006;2022-12-08T11:21:45;100662.41;;;21.60;41.15
74228;BME280;62587;52.352;5.006;2022-12-08T11:24:25;100667.25;;;21.55;41.23
74228;BME280;62587;52.352;5.006;2022-12-08T11:27:03;100664.84;;;21.52;41.12
74228;BME280;62587;52.352;5.006;2022-12-08T11:29:33;100669.91;;;21.44;41.41
74228;BME280;62587;52.352;5.006;2022-12-08T11:32:11;100654.66;;;21.35;41.47
74228;BME280;62587;52.352;5.006;2022-12-08T11:34:47;100659.50;;;21.30;41.79
74228;BME280;62587;52.352;5.006;2022-12-08T11:40:23;100654.03;;;21.20;42.05
74228;BME280;62587;52.352;5.006;2022-12-08T11:43:01;100654.47;;;21.14;42.36
74228;BME280;62587;52.352;5.006;2022-12-08T11:45:32;100658.34;;;21.10;42.30
74228;BME280;62587;52.352;5.006;2022-12-08T11:48:17;100660.50;;;21.05;43.13
74228;BME280;62587;52.352;5.006;2022-12-08T11:50:48;100646.06;;;20.97;43.21
74228;BME280;62587;52.352;5.006;2022-12-08T11:55:59;100662.28;;;20.94;42.88
74228;BME280;62587;52.352;5.006;2022-12-08T11:58:35;100658.38;;;20.87;44.14
74228;BME280;62587;52.352;5.006;2022-12-08T12:01:02;100665.94;;;21.04;42.97
74228;BME280;62587;52.352;5.006;2022-12-08T12:03:39;100656.22;;;20.92;43.03
74228;BME280;62587;52.352;5.006;2022-12-08T12:06:32;100659.22;;;20.87;43.16
74228;BME280;62587;52.352;5.006;2022-12-08T12:11:48;100664.97;;;21.05;43.25
74228;BME280;62587;52.352;5.006;2022-12-08T12:14:46;100669.03;;;20.87;43.68
74228;BME280;62587;52.352;5.006;2022-12-08T12:17:44;100668.38;;;20.83;43.90
74228;BME280;62587;52.352;5.006;2022-12-08T12:20:40;100656.63;;;20.75;44.05
74228;BME280;62587;52.352;5.006;2022-12-08T12:26:04;100650.84;;;20.81;44.76
74228;BME280;62587;52.352;5.006;2022-12-08T12:28:43;100642.97;;;20.79;44.44
74228;BME280;62587;52.352;5.006;2022-12-08T12:31:13;100636.72;;;20.80;44.95
74228;BME280;62587;52.352;5.006;2022-12-08T12:33:41;100632.56;;;20.76;44.36
74228;BME280;62587;52.352;5.006;2022-12-08T12:36:08;100637.88;;;20.76;44.84
74228;BME280;62587;52.352;5.006;2022-12-08T12:38:37;100640.91;;;20.71;44.38
74228;BME280;62587;52.352;5.006;2022-12-08T12:41:45;100641.63;;;20.73;44.45
74228;BME280;62587;52.352;5.006;2022-12-08T12:46:52;100632.03;;;20.60;45.08
74228;BME280;62587;52.352;5.006;2022-12-08T12:54:31;100625.84;;;20.59;45.98
74228;BME280;62587;52.352;5.006;2022-12-08T13:00:26;100633.75;;;20.61;45.31
74228;BME280;62587;52.352;5.006;2022-12-08T13:02:45;100628.00;;;20.54;45.90
74228;BME280;62587;52.352;5.006;2022-12-08T13:05:30;100620.94;;;20.42;45.51
74228;BME280;62587;52.352;5.006;2022-12-08T13:10:48;100623.22;;;20.36;45.70
74228;BME280;62587;52.352;5.006;2022-12-08T13:13:21;100614.16;;;20.38;45.53
74228;BME280;62587;52.352;5.006;2022-12-08T13:15:58;100625.16;;;20.34;46.07
74228;BME280;62587;52.352;5.006;2022-12-08T13:31:44;100631.19;;;20.36;46.83
74228;BME280;62587;52.352;5.006;2022-12-08T13:34:17;100631.22;;;20.23;46.81
74228;BME280;62587;52.352;5.006;2022-12-08T13:39:42;100615.63;;;20.06;47.41
74228;BME280;62587;52.352;5.006;2022-12-08T13:44:52;100611.84;;;19.97;47.96
74228;BME280;62587;52.352;5.006;2022-12-08T13:47:32;100615.44;;;19.96;47.26
74228;BME280;62587;52.352;5.006;2022-12-08T13:50:04;100606.75;;;19.94;47.50
74228;BME280;62587;52.352;5.006;2022-12-08T13:52:46;100612.19;;;19.93;47.37
74228;BME280;62587;52.352;5.006;2022-12-08T13:55:20;100608.88;;;19.89;47.76
74228;BME280;62587;52.352;5.006;2022-12-08T13:57:49;100604.56;;;19.88;47.97
74228;BME280;62587;52.352;5.006;2022-12-08T14:00:19;100599.31;;;19.87;47.56
74228;BME280;62587;52.352;5.006;2022-12-08T14:02:48;100602.97;;;19.86;47.82
74228;BME280;62587;52.352;5.006;2022-12-08T14:05:15;100605.72;;;19.84;48.16
74228;BME280;62587;52.352;5.006;2022-12-08T14:07:41;100608.38;;;19.84;47.68
74228;BME280;62587;52.352;5.006;2022-12-08T14:10:16;100613.69;;;19.84;47.92
74228;BME280;62587;52.352;5.006;2022-12-08T14:12:45;100607.63;;;19.82;48.03
74228;BME280;62587;52.352;5.006;2022-12-08T14:15:13;100598.84;;;19.82;47.94
74228;BME280;62587;52.352;5.006;2022-12-08T14:17:39;100598.84;;;19.82;47.69
74228;BME280;62587;52.352;5.006;2022-12-08T14:22:38;100595.88;;;19.74;48.19
74228;BME280;62587;52.352;5.006;2022-12-08T14:25:05;100593.81;;;19.77;48.36
74228;BME280;62587;52.352;5.006;2022-12-08T14:27:35;100600.84;;;19.78;48.07
74228;BME280;62587;52.352;5.006;2022-12-08T14:30:25;100597.34;;;19.78;48.35
74228;BME280;62587;52.352;5.006;2022-12-08T14:32:56;100598.19;;;19.78;48.17
74228;BME280;62587;52.352;5.006;2022-12-08T14:35:34;100598.72;;;19.83;48.09
74228;BME280;62587;52.352;5.006;2022-12-08T14:38:03;100601.59;;;19.80;47.54